createdAt,value
2019-06-01T00:01:46.856Z,12.11
2019-06-01T00:04:17.473Z,12.12
2019-06-01T00:06:47.164Z,12.11
2019-06-01T00:09:17.631Z,12.12
2019-06-01T00:11:47.544Z,12.15
2019-06-01T00:14:17.627Z,12.16
2019-06-01T00:16:48.000Z,12.20
2019-06-01T00:19:17.690Z,12.22
2019-06-01T00:21:47.497Z,12.24
2019-06-01T00:24:19.802Z,12.25
2019-06-01T00:26:49.979Z,12.26
2019-06-01T00:29:20.020Z,12.29
2019-06-01T00:31:52.273Z,12.30
2019-06-01T00:34:22.382Z,12.33
2019-06-01T00:36:52.074Z,12.33
2019-06-01T00:39:21.814Z,12.36
2019-06-01T00:41:52.543Z,12.39
2019-06-01T00:44:22.270Z,12.42
2019-06-01T00:46:52.783Z,12.40
2019-06-01T00:49:23.877Z,12.40
2019-06-01T00:51:53.776Z,12.41
2019-06-01T00:54:23.451Z,12.40
2019-06-01T00:56:53.944Z,12.40
2019-06-01T00:59:23.493Z,12.42
2019-06-01T01:01:54.686Z,12.46
2019-06-01T01:04:24.683Z,12.54
2019-06-01T01:06:56.293Z,12.49
2019-06-01T01:09:26.540Z,12.52
2019-06-01T01:11:58.745Z,12.51
2019-06-01T01:14:28.655Z,12.53
2019-06-01T01:16:58.700Z,12.52
2019-06-01T01:19:28.507Z,12.55
2019-06-01T01:21:59.626Z,12.56
2019-06-01T01:24:30.126Z,12.54
2019-06-01T01:27:00.443Z,12.54
2019-06-01T01:29:30.201Z,12.53
2019-06-01T01:31:59.692Z,12.56
2019-06-01T01:34:29.704Z,12.61
2019-06-01T01:36:59.506Z,12.64
2019-06-01T01:39:29.649Z,12.68
2019-06-01T01:41:59.654Z,12.70
2019-06-01T01:44:29.485Z,12.72
2019-06-01T01:46:59.141Z,12.66
2019-06-01T01:49:29.205Z,12.62
2019-06-01T01:52:01.638Z,12.57
2019-06-01T01:54:33.363Z,12.54
2019-06-01T01:57:02.921Z,12.53
2019-06-01T01:59:32.697Z,12.52
2019-06-01T02:02:03.229Z,12.53
2019-06-01T02:04:33.112Z,12.51
2019-06-01T02:07:02.938Z,12.49
2019-06-01T02:09:32.738Z,12.46
2019-06-01T02:12:02.917Z,12.43
2019-06-01T02:14:33.737Z,12.40
2019-06-01T02:17:03.799Z,12.42
2019-06-01T02:19:36.559Z,12.42
2019-06-01T02:22:07.465Z,12.40
2019-06-01T02:24:37.562Z,12.40
2019-06-01T02:27:07.429Z,12.38
2019-06-01T02:29:37.060Z,12.39
2019-06-01T02:32:07.213Z,12.38
2019-06-01T02:34:37.142Z,12.40
2019-06-01T02:37:08.292Z,12.41
2019-06-01T02:39:37.866Z,12.39
2019-06-01T02:42:09.493Z,12.39
2019-06-01T02:44:39.065Z,12.41
2019-06-01T02:47:08.796Z,12.38
2019-06-01T02:49:39.157Z,12.40
2019-06-01T02:52:08.780Z,12.40
2019-06-01T02:54:38.248Z,12.42
2019-06-01T02:57:08.495Z,12.43
2019-06-01T02:59:38.468Z,12.33
2019-06-01T03:02:13.297Z,12.51
2019-06-01T03:04:41.186Z,12.54
2019-06-01T03:07:12.735Z,12.58
2019-06-01T03:09:42.494Z,12.62
2019-06-01T03:12:15.811Z,12.64
2019-06-01T03:14:47.520Z,12.70
2019-06-01T03:17:20.227Z,12.74
2019-06-01T03:19:52.584Z,12.76
2019-06-01T03:22:23.930Z,12.77
2019-06-01T03:24:56.621Z,12.77
2019-06-01T03:27:29.560Z,12.78
2019-06-01T03:30:05.311Z,12.79
2019-06-01T03:32:38.100Z,12.82
2019-06-01T03:35:09.657Z,12.85
2019-06-01T03:37:39.970Z,12.80
2019-06-01T03:40:19.656Z,12.79
2019-06-01T03:42:42.461Z,12.81
2019-06-01T03:45:12.968Z,12.79
2019-06-01T03:47:42.761Z,12.84
2019-06-01T03:50:13.250Z,12.86
2019-06-01T03:52:42.826Z,12.90
2019-06-01T03:55:12.395Z,12.96
2019-06-01T03:57:42.321Z,12.88
2019-06-01T04:00:12.510Z,12.84
2019-06-01T04:02:42.088Z,12.84
2019-06-01T04:05:14.259Z,12.84
2019-06-01T04:07:44.113Z,12.86
2019-06-01T04:10:13.740Z,12.88
2019-06-01T04:12:44.610Z,12.88
2019-06-01T04:15:16.827Z,12.92
2019-06-01T04:17:46.507Z,12.92
2019-06-01T04:20:17.234Z,12.98
2019-06-01T04:22:46.890Z,12.97
2019-06-01T04:25:16.585Z,12.97
2019-06-01T04:27:46.773Z,12.97
2019-06-01T04:30:16.692Z,12.96
2019-06-01T04:32:49.763Z,13.04
2019-06-01T04:35:17.911Z,13.08
2019-06-01T04:37:47.898Z,13.07
2019-06-01T04:40:17.551Z,13.08
2019-06-01T04:42:47.735Z,13.08
2019-06-01T04:45:20.599Z,13.08
2019-06-01T04:47:50.332Z,13.14
2019-06-01T04:50:22.005Z,13.21
2019-06-01T04:52:51.904Z,13.19
2019-06-01T04:55:21.416Z,13.18
2019-06-01T04:57:51.279Z,13.22
2019-06-01T05:00:27.392Z,13.21
2019-06-01T05:03:04.862Z,13.23
2019-06-01T05:05:26.090Z,13.22
2019-06-01T05:07:55.632Z,13.26
2019-06-01T05:10:25.228Z,13.28
2019-06-01T05:12:55.389Z,12.66
2019-06-01T05:15:25.779Z,13.42
2019-06-01T05:17:55.352Z,13.46
2019-06-01T05:20:25.264Z,13.48
2019-06-01T05:22:55.703Z,13.56
2019-06-01T05:25:25.304Z,13.58
2019-06-01T05:27:55.218Z,13.59
2019-06-01T05:30:24.847Z,13.65
2019-06-01T05:32:56.070Z,13.72
2019-06-01T05:35:25.842Z,13.81
2019-06-01T05:37:55.725Z,13.84
2019-06-01T05:40:27.088Z,13.90
2019-06-01T05:42:57.175Z,13.90
2019-06-01T05:45:28.555Z,13.89
2019-06-01T05:47:58.465Z,13.97
2019-06-01T05:50:28.363Z,14.03
2019-06-01T05:52:58.413Z,14.14
2019-06-01T05:55:28.403Z,14.17
2019-06-01T05:58:00.723Z,14.26
2019-06-01T06:00:44.113Z,14.27
2019-06-01T06:03:16.227Z,14.27
2019-06-01T06:05:46.072Z,14.35
2019-06-01T06:08:16.043Z,14.36
2019-06-01T06:10:46.455Z,14.37
2019-06-01T06:13:17.415Z,14.43
2019-06-01T06:15:47.781Z,14.46
2019-06-01T06:18:17.830Z,14.48
2019-06-01T06:20:47.511Z,14.44
2019-06-01T06:23:18.400Z,14.49
2019-06-01T06:25:48.008Z,14.52
2019-06-01T06:28:18.823Z,14.55
2019-06-01T06:30:48.325Z,14.57
2019-06-01T06:33:21.486Z,14.55
2019-06-01T06:35:54.644Z,14.57
2019-06-01T06:38:24.581Z,14.56
2019-06-01T06:40:54.424Z,14.53
2019-06-01T06:43:32.657Z,14.57
2019-06-01T06:45:56.827Z,14.60
2019-06-01T06:48:29.583Z,14.56
2019-06-01T06:50:59.485Z,14.53
2019-06-01T06:53:35.647Z,14.51
2019-06-01T06:56:06.057Z,14.51
2019-06-01T06:58:36.672Z,14.55
2019-06-01T07:01:07.188Z,14.57
2019-06-01T07:03:37.353Z,14.65
2019-06-01T07:06:07.078Z,14.60
2019-06-01T07:08:38.250Z,14.61
2019-06-01T07:11:11.763Z,14.61
2019-06-01T07:13:40.396Z,14.52
2019-06-01T07:16:10.734Z,14.61
2019-06-01T07:18:43.256Z,14.60
2019-06-01T07:21:13.280Z,14.56
2019-06-01T07:23:43.126Z,14.54
2019-06-01T07:26:12.951Z,14.56
2019-06-01T07:28:52.495Z,14.56
2019-06-01T07:31:22.393Z,14.58
2019-06-01T07:33:51.894Z,14.57
2019-06-01T07:36:22.231Z,14.57
2019-06-01T07:38:52.407Z,14.62
2019-06-01T07:41:22.756Z,14.68
2019-06-01T07:43:52.408Z,14.58
2019-06-01T07:46:22.812Z,14.54
2019-06-01T07:48:52.547Z,14.58
2019-06-01T07:51:23.219Z,14.58
2019-06-01T07:53:53.016Z,14.54
2019-06-01T07:56:22.704Z,14.50
2019-06-01T07:58:52.648Z,14.53
2019-06-01T08:01:26.830Z,14.50
2019-06-01T08:03:56.358Z,14.45
2019-06-01T08:06:27.981Z,14.47
2019-06-01T08:08:58.056Z,14.48
2019-06-01T08:11:32.900Z,14.46
2019-06-01T08:14:01.455Z,14.42
2019-06-01T08:16:33.098Z,14.46
2019-06-01T08:19:02.651Z,14.41
2019-06-01T08:21:32.636Z,14.45
2019-06-01T08:24:03.586Z,14.48
2019-06-01T08:26:33.102Z,14.46
2019-06-01T08:29:03.076Z,14.44
2019-06-01T08:31:34.144Z,14.41
2019-06-01T08:34:04.393Z,14.37
2019-06-01T08:36:37.609Z,14.37
2019-06-01T08:39:08.678Z,14.40
2019-06-01T08:41:41.564Z,14.37
2019-06-01T08:44:11.731Z,14.40
2019-06-01T08:46:41.467Z,14.45
2019-06-01T08:49:11.564Z,14.52
2019-06-01T08:51:41.221Z,14.58
2019-06-01T08:54:13.132Z,14.54
2019-06-01T08:56:43.176Z,14.56
2019-06-01T08:59:14.699Z,14.59
2019-06-01T09:01:44.903Z,14.60
2019-06-01T09:04:14.707Z,14.62
2019-06-01T09:06:44.789Z,14.69
2019-06-01T09:09:17.106Z,14.76
2019-06-01T09:11:46.851Z,14.82
2019-06-01T09:14:17.125Z,14.80
2019-06-01T09:16:47.446Z,14.79
2019-06-01T09:19:17.652Z,14.75
2019-06-01T09:21:48.182Z,14.77
2019-06-01T09:24:17.870Z,14.77
2019-06-01T09:26:47.489Z,14.76
2019-06-01T09:29:17.691Z,14.82
2019-06-01T09:31:47.332Z,14.85
2019-06-01T09:34:18.561Z,14.81
2019-06-01T09:36:48.220Z,14.84
2019-06-01T09:39:17.803Z,14.86
2019-06-01T09:41:48.831Z,14.84
2019-06-01T09:44:18.802Z,14.85
2019-06-01T09:46:48.561Z,14.88
2019-06-01T09:49:20.658Z,14.89
2019-06-01T09:51:50.810Z,14.87
2019-06-01T09:54:20.387Z,14.89
2019-06-01T09:56:50.473Z,14.98
2019-06-01T09:59:21.302Z,15.01
2019-06-01T10:01:50.999Z,15.06
2019-06-01T10:04:20.734Z,15.06
2019-06-01T10:06:50.437Z,15.02
2019-06-01T10:09:20.315Z,15.03
2019-06-01T10:11:49.843Z,15.17
2019-06-01T10:14:20.206Z,15.30
2019-06-01T10:16:52.654Z,15.48
2019-06-01T10:19:22.113Z,15.77
2019-06-01T10:21:52.838Z,15.92
2019-06-01T10:24:24.329Z,16.14
2019-06-01T10:26:54.647Z,16.19
2019-06-01T10:29:25.527Z,16.29
2019-06-01T10:31:55.626Z,16.38
2019-06-01T10:34:26.170Z,16.44
2019-06-01T10:36:55.874Z,16.48
2019-06-01T10:39:25.928Z,16.42
2019-06-01T10:41:56.712Z,16.41
2019-06-01T10:44:27.734Z,16.42
2019-06-01T10:46:57.686Z,16.27
2019-06-01T10:49:30.024Z,16.19
2019-06-01T10:51:59.610Z,16.14
2019-06-01T10:54:30.155Z,16.03
2019-06-01T10:57:00.666Z,15.99
2019-06-01T10:59:34.256Z,16.00
2019-06-01T11:02:04.405Z,16.03
2019-06-01T11:04:37.009Z,15.97
2019-06-01T11:07:07.271Z,15.90
2019-06-01T11:09:37.175Z,15.77
2019-06-01T11:12:06.969Z,15.70
2019-06-01T11:14:39.081Z,15.72
2019-06-01T11:17:08.983Z,15.87
2019-06-01T11:19:42.110Z,15.97
2019-06-01T11:22:13.639Z,16.02
2019-06-01T11:24:45.734Z,16.00
2019-06-01T11:27:17.546Z,15.96
2019-06-01T11:29:51.719Z,16.00
2019-06-01T11:32:23.442Z,15.99
2019-06-01T11:34:55.528Z,15.96
2019-06-01T11:37:28.977Z,15.97
2019-06-01T11:40:09.987Z,16.03
2019-06-01T11:42:45.117Z,16.03
2019-06-01T11:45:16.853Z,15.99
2019-06-01T11:47:49.347Z,15.58
2019-06-01T11:50:20.061Z,15.21
2019-06-01T11:52:49.587Z,15.20
2019-06-01T11:55:20.522Z,15.08
2019-06-01T11:57:51.547Z,14.94
2019-06-01T12:00:21.514Z,14.91
2019-06-01T12:02:53.123Z,15.01
2019-06-01T12:05:23.058Z,15.03
2019-06-01T12:07:53.052Z,15.02
2019-06-01T12:10:25.714Z,15.02
2019-06-01T12:12:55.355Z,15.06
2019-06-01T12:15:36.346Z,15.07
2019-06-01T12:18:11.180Z,15.22
2019-06-01T12:20:47.387Z,15.40
2019-06-01T12:23:18.731Z,15.58
2019-06-01T12:25:54.401Z,15.92
2019-06-01T12:28:25.746Z,16.05
2019-06-01T12:30:56.904Z,16.03
2019-06-01T12:33:28.499Z,15.87
2019-06-01T12:36:06.124Z,16.08
2019-06-01T12:38:57.016Z,16.07
2019-06-01T12:41:32.975Z,16.09
2019-06-01T12:44:18.273Z,16.13
2019-06-01T12:46:56.560Z,16.22
2019-06-01T12:49:36.112Z,16.24
2019-06-01T12:52:07.303Z,16.28
2019-06-01T12:54:37.656Z,16.49
2019-06-01T12:57:08.106Z,16.57
2019-06-01T12:59:37.958Z,16.69
2019-06-01T13:02:07.757Z,16.87
2019-06-01T13:04:40.534Z,17.19
2019-06-01T13:07:12.798Z,17.12
2019-06-01T13:09:43.987Z,17.28
2019-06-01T13:12:13.909Z,16.87
2019-06-01T13:14:43.507Z,17.03
2019-06-01T13:17:13.867Z,16.88
2019-06-01T13:19:43.417Z,16.50
2019-06-01T13:22:13.892Z,16.44
2019-06-01T13:24:45.777Z,16.35
2019-06-01T13:27:16.189Z,16.43
2019-06-01T13:29:46.223Z,16.46
2019-06-01T13:32:15.776Z,16.50
2019-06-01T13:34:47.174Z,16.57
2019-06-01T13:37:17.507Z,16.81
2019-06-01T13:39:54.211Z,16.56
2019-06-01T13:42:19.693Z,16.54
2019-06-01T13:44:51.501Z,16.41
2019-06-01T13:47:22.481Z,16.32
2019-06-01T13:49:52.409Z,15.82
2019-06-01T13:52:22.304Z,15.94
2019-06-01T13:54:52.965Z,16.10
2019-06-01T13:57:23.816Z,16.23
2019-06-01T13:59:55.040Z,16.18
2019-06-01T14:02:27.068Z,16.18
2019-06-01T14:05:00.510Z,16.18
2019-06-01T14:07:30.726Z,15.96
2019-06-01T14:10:00.699Z,16.07
2019-06-01T14:12:30.800Z,15.66
2019-06-01T14:15:00.482Z,15.81
2019-06-01T14:17:40.851Z,15.74
2019-06-01T14:20:10.728Z,15.82
2019-06-01T14:22:41.732Z,15.81
2019-06-01T14:25:14.932Z,15.71
2019-06-01T14:27:44.265Z,15.31
2019-06-01T14:30:14.945Z,15.50
2019-06-01T14:32:46.124Z,15.90
2019-06-01T14:35:16.303Z,15.93
2019-06-01T14:37:46.700Z,15.80
2019-06-01T14:40:17.572Z,15.80
2019-06-01T14:42:49.378Z,15.72
2019-06-01T14:45:19.382Z,15.63
2019-06-01T14:47:49.456Z,15.77
2019-06-01T14:50:20.182Z,15.84
2019-06-01T14:52:49.915Z,15.44
2019-06-01T14:55:20.340Z,15.49
2019-06-01T14:57:52.423Z,15.42
2019-06-01T15:00:23.345Z,15.44
2019-06-01T15:02:54.454Z,15.44
2019-06-01T15:05:25.075Z,15.51
2019-06-01T15:07:56.795Z,15.22
2019-06-01T15:10:26.901Z,15.19
2019-06-01T15:13:01.263Z,15.27
2019-06-01T15:15:29.004Z,15.20
2019-06-01T15:18:05.375Z,15.07
2019-06-01T15:20:35.214Z,15.03
2019-06-01T15:23:05.255Z,14.94
2019-06-01T15:25:35.322Z,15.07
2019-06-01T15:28:05.652Z,14.97
2019-06-01T15:30:38.734Z,15.07
2019-06-01T15:33:13.841Z,15.09
2019-06-01T15:35:46.002Z,15.02
2019-06-01T15:38:15.633Z,15.08
2019-06-01T15:40:47.597Z,14.95
2019-06-01T15:43:17.517Z,15.12
2019-06-01T15:45:48.220Z,14.91
2019-06-01T15:48:19.420Z,14.31
2019-06-01T15:50:49.377Z,15.13
2019-06-01T15:53:22.140Z,15.11
2019-06-01T15:55:52.257Z,15.00
2019-06-01T15:58:22.297Z,14.92
2019-06-01T16:00:52.907Z,14.84
2019-06-01T16:03:23.451Z,14.94
2019-06-01T16:05:53.411Z,14.84
2019-06-01T16:08:25.000Z,14.98
2019-06-01T16:10:55.254Z,14.93
2019-06-01T16:13:25.585Z,15.01
2019-06-01T16:15:57.991Z,15.03
2019-06-01T16:18:28.167Z,14.97
2019-06-01T16:20:58.105Z,15.03
2019-06-01T16:23:27.823Z,14.96
2019-06-01T16:26:09.472Z,14.82
2019-06-01T16:28:29.468Z,14.73
2019-06-01T16:31:00.579Z,14.76
2019-06-01T16:33:34.075Z,14.84
2019-06-01T16:36:05.625Z,14.64
2019-06-01T16:38:38.240Z,14.67
2019-06-01T16:41:12.723Z,14.56
2019-06-01T16:43:44.480Z,14.53
2019-06-01T16:46:14.318Z,14.56
2019-06-01T16:48:44.686Z,14.60
2019-06-01T16:51:15.239Z,14.50
2019-06-01T16:53:48.078Z,14.48
2019-06-01T16:56:18.142Z,14.42
2019-06-01T16:58:51.058Z,14.33
2019-06-01T17:01:21.238Z,14.33
2019-06-01T17:03:52.602Z,14.38
2019-06-01T17:06:25.460Z,14.50
2019-06-01T17:08:56.608Z,14.56
2019-06-01T17:11:27.404Z,14.54
2019-06-01T17:13:58.615Z,14.44
2019-06-01T17:16:33.720Z,14.46
2019-06-01T17:19:05.233Z,14.37
2019-06-01T17:21:35.060Z,14.37
2019-06-01T17:24:08.183Z,14.45
2019-06-01T17:26:40.064Z,14.41
2019-06-01T17:29:10.559Z,14.44
2019-06-01T17:31:53.953Z,14.54
2019-06-01T17:34:17.019Z,14.59
2019-06-01T17:36:47.754Z,14.46
2019-06-01T17:39:19.471Z,14.48
2019-06-01T17:41:48.979Z,14.39
2019-06-01T17:44:18.779Z,14.34
2019-06-01T17:46:53.575Z,14.18
2019-06-01T17:49:23.369Z,14.32
2019-06-01T17:51:54.817Z,14.26
2019-06-01T17:54:24.391Z,14.20
2019-06-01T17:56:54.077Z,14.13
2019-06-01T17:59:25.081Z,14.18
2019-06-01T18:01:54.931Z,14.15
2019-06-01T18:04:24.960Z,14.17
2019-06-01T18:06:54.688Z,14.12
2019-06-01T18:09:24.504Z,14.12
2019-06-01T18:11:56.894Z,14.17
2019-06-01T18:14:27.391Z,14.16
2019-06-01T18:16:57.394Z,14.19
2019-06-01T18:19:27.564Z,14.21
2019-06-01T18:21:59.466Z,14.00
2019-06-01T18:24:29.643Z,14.12
2019-06-01T18:26:59.583Z,14.16
2019-06-01T18:29:38.929Z,14.13
2019-06-01T18:32:09.427Z,14.21
2019-06-01T18:34:40.010Z,13.85
2019-06-01T18:37:09.741Z,14.15
2019-06-01T18:39:47.997Z,14.19
2019-06-01T18:42:20.282Z,14.18
2019-06-01T18:44:52.447Z,14.12
2019-06-01T18:47:37.306Z,14.13
2019-06-01T18:50:16.003Z,14.04
2019-06-01T18:52:47.943Z,14.02
2019-06-01T18:55:19.894Z,13.98
2019-06-01T18:57:52.766Z,13.88
2019-06-01T19:00:22.901Z,13.90
2019-06-01T19:02:52.824Z,13.93
2019-06-01T19:05:22.786Z,13.84
2019-06-01T19:07:55.460Z,13.77
2019-06-01T19:10:25.374Z,13.76
2019-06-01T19:12:57.520Z,13.74
2019-06-01T19:15:29.165Z,13.84
2019-06-01T19:18:00.093Z,13.83
2019-06-01T19:20:33.131Z,13.76
2019-06-01T19:23:08.741Z,13.84
2019-06-01T19:25:38.811Z,13.89
2019-06-01T19:28:09.097Z,13.89
2019-06-01T19:30:44.578Z,13.73
2019-06-01T19:33:17.422Z,13.73
2019-06-01T19:35:56.809Z,13.81
2019-06-01T19:38:36.805Z,13.83
2019-06-01T19:41:11.306Z,13.58
2019-06-01T19:43:51.278Z,13.72
2019-06-01T19:46:23.698Z,13.65
2019-06-01T19:48:55.429Z,13.67
2019-06-01T19:51:25.761Z,13.74
2019-06-01T19:53:56.377Z,13.57
2019-06-01T19:56:26.317Z,13.55
2019-06-01T19:58:56.101Z,13.52
2019-06-01T20:01:26.560Z,13.59
2019-06-01T20:03:56.676Z,13.66
2019-06-01T20:06:27.038Z,13.54
2019-06-01T20:08:58.460Z,13.55
2019-06-01T20:11:28.699Z,13.55
2019-06-01T20:13:58.884Z,13.60
2019-06-01T20:16:30.770Z,13.48
2019-06-01T20:19:01.186Z,13.40
2019-06-01T20:21:40.386Z,13.42
2019-06-01T20:24:11.103Z,13.47
2019-06-01T20:26:48.779Z,13.57
2019-06-01T20:29:15.682Z,13.43
2019-06-01T20:31:46.351Z,13.36
2019-06-01T20:34:22.231Z,13.37
2019-06-01T20:36:52.541Z,13.41
2019-06-01T20:39:22.499Z,13.33
2019-06-01T20:41:52.745Z,13.37
2019-06-01T20:44:23.448Z,13.35
2019-06-01T20:46:54.460Z,13.33
2019-06-01T20:49:24.359Z,13.34
2019-06-01T20:51:55.202Z,13.18
2019-06-01T20:54:26.742Z,13.28
2019-06-01T20:56:57.098Z,13.26
2019-06-01T20:59:26.792Z,13.24
2019-06-01T21:01:57.842Z,13.27
2019-06-01T21:04:29.177Z,13.19
2019-06-01T21:06:59.856Z,13.17
2019-06-01T21:09:30.207Z,13.20
2019-06-01T21:12:01.287Z,13.28
2019-06-01T21:14:32.541Z,13.17
2019-06-01T21:17:02.857Z,13.24
2019-06-01T21:19:32.853Z,10.69
2019-06-01T21:22:03.456Z,13.20
2019-06-01T21:24:34.002Z,13.00
2019-06-01T21:27:04.686Z,12.87
2019-06-01T21:29:37.173Z,13.00
2019-06-01T21:32:25.764Z,13.07
2019-06-01T21:35:01.833Z,13.08
2019-06-01T21:37:36.098Z,12.99
2019-06-01T21:40:13.110Z,13.04
2019-06-01T21:43:00.930Z,13.10
2019-06-01T21:45:26.479Z,13.07
2019-06-01T21:48:00.157Z,13.05
2019-06-01T21:50:34.487Z,13.04
2019-06-01T21:53:22.097Z,12.99
2019-06-01T21:55:56.615Z,12.98
2019-06-01T21:58:40.141Z,12.92
2019-06-01T22:01:18.801Z,13.05
2019-06-01T22:03:51.009Z,13.16
2019-06-01T22:06:25.634Z,13.05
2019-06-01T22:09:00.880Z,13.07
2019-06-01T22:11:34.866Z,12.99
2019-06-01T22:14:11.039Z,13.00
2019-06-01T22:16:54.955Z,12.98
2019-06-01T22:19:29.170Z,12.91
2019-06-01T22:22:12.054Z,12.87
2019-06-01T22:24:44.710Z,12.89
2019-06-01T22:27:18.136Z,12.86
2019-06-01T22:29:52.318Z,12.54
2019-06-01T22:32:29.577Z,12.78
2019-06-01T22:34:59.115Z,12.87
2019-06-01T22:37:32.297Z,12.86
2019-06-01T22:40:07.429Z,12.81
2019-06-01T22:42:40.722Z,12.86
2019-06-01T22:45:16.219Z,12.83
2019-06-01T22:47:51.566Z,12.69
2019-06-01T22:50:22.772Z,12.68
2019-06-01T22:52:58.301Z,12.68
2019-06-01T22:55:28.552Z,12.71
2019-06-01T22:57:58.183Z,12.57
2019-06-01T23:00:28.070Z,12.56
2019-06-01T23:02:57.855Z,12.60
2019-06-01T23:05:29.058Z,12.50
2019-06-01T23:07:59.470Z,12.60
2019-06-01T23:10:34.886Z,12.70
2019-06-01T23:13:01.427Z,12.77
2019-06-01T23:15:31.955Z,12.69
2019-06-01T23:18:02.114Z,12.67
2019-06-01T23:20:32.452Z,12.68
2019-06-01T23:23:02.227Z,12.64
2019-06-01T23:25:32.674Z,12.64
2019-06-01T23:28:02.691Z,12.68
2019-06-01T23:30:32.645Z,12.67
2019-06-01T23:33:03.691Z,12.65
2019-06-01T23:35:33.634Z,12.71
2019-06-01T23:38:03.959Z,12.74
2019-06-01T23:40:34.244Z,12.62
2019-06-01T23:43:03.911Z,12.61
2019-06-01T23:45:33.549Z,12.60
2019-06-01T23:48:03.073Z,12.54
2019-06-01T23:50:34.051Z,12.57
2019-06-01T23:53:13.329Z,12.57
2019-06-01T23:55:36.272Z,12.55
2019-06-01T23:58:06.572Z,12.49
